Terminal Aerodrome Forecast
Issued by NWS Greer, SC

Home | Current Version | Previous Version | Text Only | Print | Product List | Glossary On
Versions: 1 2 3 4 5 6 7 8 9 10 11 12 13 14 15 16 17 18 19 20 21 22 23 24 25 26 27 28 29 30 31 32 33 34 35 36 37 38 39 40 41 42 43 44 45 46 47 48 49 50
089
FTUS42 KGSP 131553 AAB
TAFCLT
TAF AMD
KCLT 131553Z 1316/1418 01009KT 3SM -RA BR OVC005
      TEMPO 1316/1318 2SM +RA BR BKN003
     FM131900 02006KT 2SM -RA BR OVC005
     FM140300 36003KT 1SM -RA BR OVC003 PROB30 1403/1409 1/2SM -DZ
      FG OVC002
     FM141300 23005KT 2SM -SHRA BR OVC004
     FM141500 24008KT P6SM BKN018=

USA.gov is the U.S. government's official web portal to all federal, state and local government web resources and services.